sensor_id;sensor_type;location;lat;lon;timestamp;P1;durP1;ratioP1;P2;durP2;ratioP2
2756;SDS011;1386;50.862;6.494;2024-03-08T00:00:17;20.80;;;17.43;;
2756;SDS011;1386;50.862;6.494;2024-03-08T00:02:44;23.03;;;17.00;;
2756;SDS011;1386;50.862;6.494;2024-03-08T00:05:12;22.33;;;18.10;;
2756;SDS011;1386;50.862;6.494;2024-03-08T00:07:40;24.20;;;17.57;;
2756;SDS011;1386;50.862;6.494;2024-03-08T00:10:08;24.77;;;18.23;;
2756;SDS011;1386;50.862;6.494;2024-03-08T00:12:37;19.90;;;17.77;;
2756;SDS011;1386;50.862;6.494;2024-03-08T00:15:08;26.37;;;18.80;;
2756;SDS011;1386;50.862;6.494;2024-03-08T00:17:35;26.37;;;17.60;;
2756;SDS011;1386;50.862;6.494;2024-03-08T00:20:03;24.63;;;17.40;;
2756;SDS011;1386;50.862;6.494;2024-03-08T00:22:34;21.73;;;16.20;;
2756;SDS011;1386;50.862;6.494;2024-03-08T00:25:02;21.00;;;17.40;;
2756;SDS011;1386;50.862;6.494;2024-03-08T00:27:29;21.73;;;17.07;;
2756;SDS011;1386;50.862;6.494;2024-03-08T00:29:56;23.60;;;19.70;;
2756;SDS011;1386;50.862;6.494;2024-03-08T00:32:24;24.90;;;17.80;;
2756;SDS011;1386;50.862;6.494;2024-03-08T00:34:52;22.30;;;18.00;;
2756;SDS011;1386;50.862;6.494;2024-03-08T00:37:19;22.30;;;18.30;;
2756;SDS011;1386;50.862;6.494;2024-03-08T00:39:46;22.53;;;19.07;;
2756;SDS011;1386;50.862;6.494;2024-03-08T00:42:14;24.30;;;17.20;;
2756;SDS011;1386;50.862;6.494;2024-03-08T00:44:43;22.77;;;17.37;;
2756;SDS011;1386;50.862;6.494;2024-03-08T00:47:10;21.63;;;18.17;;
2756;SDS011;1386;50.862;6.494;2024-03-08T00:49:40;20.67;;;17.07;;
2756;SDS011;1386;50.862;6.494;2024-03-08T00:52:07;25.30;;;18.90;;
2756;SDS011;1386;50.862;6.494;2024-03-08T00:54:35;24.00;;;18.53;;
2756;SDS011;1386;50.862;6.494;2024-03-08T00:57:02;23.70;;;18.30;;
2756;SDS011;1386;50.862;6.494;2024-03-08T00:59:29;22.23;;;18.10;;
2756;SDS011;1386;50.862;6.494;2024-03-08T01:01:57;22.87;;;18.53;;
2756;SDS011;1386;50.862;6.494;2024-03-08T01:04:25;22.53;;;18.73;;
2756;SDS011;1386;50.862;6.494;2024-03-08T01:06:55;22.90;;;18.47;;
2756;SDS011;1386;50.862;6.494;2024-03-08T01:09:23;25.10;;;19.03;;
2756;SDS011;1386;50.862;6.494;2024-03-08T01:11:50;23.50;;;17.90;;
2756;SDS011;1386;50.862;6.494;2024-03-08T01:14:19;23.80;;;18.00;;
2756;SDS011;1386;50.862;6.494;2024-03-08T01:16:47;25.40;;;18.30;;
2756;SDS011;1386;50.862;6.494;2024-03-08T01:19:14;26.80;;;18.83;;
2756;SDS011;1386;50.862;6.494;2024-03-08T01:21:41;27.07;;;18.40;;
2756;SDS011;1386;50.862;6.494;2024-03-08T01:24:09;23.33;;;19.17;;
2756;SDS011;1386;50.862;6.494;2024-03-08T01:26:36;23.60;;;18.10;;
2756;SDS011;1386;50.862;6.494;2024-03-08T01:29:03;23.40;;;17.90;;
2756;SDS011;1386;50.862;6.494;2024-03-08T01:31:30;21.97;;;18.30;;
2756;SDS011;1386;50.862;6.494;2024-03-08T01:33:58;26.03;;;20.07;;
2756;SDS011;1386;50.862;6.494;2024-03-08T01:36:25;28.60;;;18.90;;
2756;SDS011;1386;50.862;6.494;2024-03-08T01:38:52;20.97;;;17.13;;
2756;SDS011;1386;50.862;6.494;2024-03-08T01:41:20;24.77;;;18.40;;
2756;SDS011;1386;50.862;6.494;2024-03-08T01:43:47;20.73;;;17.73;;
2756;SDS011;1386;50.862;6.494;2024-03-08T01:46:15;23.63;;;17.57;;
2756;SDS011;1386;50.862;6.494;2024-03-08T01:48:48;27.53;;;19.40;;
2756;SDS011;1386;50.862;6.494;2024-03-08T01:51:15;23.50;;;18.13;;
2756;SDS011;1386;50.862;6.494;2024-03-08T01:53:43;25.70;;;19.20;;
2756;SDS011;1386;50.862;6.494;2024-03-08T01:56:12;24.60;;;18.80;;
2756;SDS011;1386;50.862;6.494;2024-03-08T01:58:41;23.10;;;18.47;;
2756;SDS011;1386;50.862;6.494;2024-03-08T02:01:09;28.80;;;19.03;;
2756;SDS011;1386;50.862;6.494;2024-03-08T02:03:39;27.90;;;18.20;;
2756;SDS011;1386;50.862;6.494;2024-03-08T02:06:08;22.80;;;17.03;;
2756;SDS011;1386;50.862;6.494;2024-03-08T02:08:36;26.67;;;19.17;;
2756;SDS011;1386;50.862;6.494;2024-03-08T02:11:03;28.67;;;19.27;;
2756;SDS011;1386;50.862;6.494;2024-03-08T02:13:30;23.63;;;17.60;;
2756;SDS011;1386;50.862;6.494;2024-03-08T02:16:00;27.90;;;19.23;;
2756;SDS011;1386;50.862;6.494;2024-03-08T02:18:33;27.53;;;19.60;;
2756;SDS011;1386;50.862;6.494;2024-03-08T02:21:02;28.37;;;18.00;;
2756;SDS011;1386;50.862;6.494;2024-03-08T02:23:30;24.10;;;17.33;;
2756;SDS011;1386;50.862;6.494;2024-03-08T02:25:57;23.90;;;18.17;;
2756;SDS011;1386;50.862;6.494;2024-03-08T02:28:25;22.80;;;17.83;;
2756;SDS011;1386;50.862;6.494;2024-03-08T02:30:52;26.50;;;18.70;;
2756;SDS011;1386;50.862;6.494;2024-03-08T02:33:21;23.33;;;17.70;;
2756;SDS011;1386;50.862;6.494;2024-03-08T02:35:49;28.20;;;18.90;;
2756;SDS011;1386;50.862;6.494;2024-03-08T02:38:17;23.63;;;17.37;;
2756;SDS011;1386;50.862;6.494;2024-03-08T02:40:46;27.17;;;19.93;;
2756;SDS011;1386;50.862;6.494;2024-03-08T02:43:14;28.70;;;18.57;;
2756;SDS011;1386;50.862;6.494;2024-03-08T02:45:42;24.60;;;19.10;;
2756;SDS011;1386;50.862;6.494;2024-03-08T02:48:10;25.40;;;18.37;;
2756;SDS011;1386;50.862;6.494;2024-03-08T02:50:38;24.17;;;18.40;;
2756;SDS011;1386;50.862;6.494;2024-03-08T02:53:07;25.20;;;19.20;;
2756;SDS011;1386;50.862;6.494;2024-03-08T02:55:36;31.83;;;20.33;;
2756;SDS011;1386;50.862;6.494;2024-03-08T02:58:04;22.73;;;17.40;;
2756;SDS011;1386;50.862;6.494;2024-03-08T03:00:33;28.30;;;19.50;;
2756;SDS011;1386;50.862;6.494;2024-03-08T03:03:00;25.20;;;19.13;;
2756;SDS011;1386;50.862;6.494;2024-03-08T03:05:28;25.90;;;18.50;;
2756;SDS011;1386;50.862;6.494;2024-03-08T03:07:55;27.10;;;19.20;;
2756;SDS011;1386;50.862;6.494;2024-03-08T03:10:23;26.07;;;19.87;;
2756;SDS011;1386;50.862;6.494;2024-03-08T03:12:52;24.20;;;19.10;;
2756;SDS011;1386;50.862;6.494;2024-03-08T03:15:19;27.13;;;19.50;;
2756;SDS011;1386;50.862;6.494;2024-03-08T03:17:47;25.97;;;19.00;;
2756;SDS011;1386;50.862;6.494;2024-03-08T03:20:16;28.00;;;20.73;;
2756;SDS011;1386;50.862;6.494;2024-03-08T03:22:48;26.40;;;19.43;;
2756;SDS011;1386;50.862;6.494;2024-03-08T03:25:17;27.20;;;19.93;;
2756;SDS011;1386;50.862;6.494;2024-03-08T03:27:48;27.70;;;19.47;;
2756;SDS011;1386;50.862;6.494;2024-03-08T03:30:17;27.40;;;19.10;;
2756;SDS011;1386;50.862;6.494;2024-03-08T03:32:47;26.00;;;18.60;;
2756;SDS011;1386;50.862;6.494;2024-03-08T03:35:16;28.03;;;19.37;;
2756;SDS011;1386;50.862;6.494;2024-03-08T03:37:43;25.43;;;18.43;;
2756;SDS011;1386;50.862;6.494;2024-03-08T03:40:16;25.73;;;19.40;;
2756;SDS011;1386;50.862;6.494;2024-03-08T03:42:45;28.10;;;20.23;;
2756;SDS011;1386;50.862;6.494;2024-03-08T03:45:12;26.30;;;19.17;;
2756;SDS011;1386;50.862;6.494;2024-03-08T03:47:42;28.03;;;20.00;;
2756;SDS011;1386;50.862;6.494;2024-03-08T03:50:09;27.40;;;19.60;;
2756;SDS011;1386;50.862;6.494;2024-03-08T03:52:36;32.33;;;18.90;;
2756;SDS011;1386;50.862;6.494;2024-03-08T03:55:03;28.27;;;20.80;;
2756;SDS011;1386;50.862;6.494;2024-03-08T03:57:31;27.10;;;18.53;;
2756;SDS011;1386;50.862;6.494;2024-03-08T03:59:58;26.93;;;18.97;;
2756;SDS011;1386;50.862;6.494;2024-03-08T04:02:25;25.27;;;18.43;;
2756;SDS011;1386;50.862;6.494;2024-03-08T04:04:53;29.17;;;19.27;;
2756;SDS011;1386;50.862;6.494;2024-03-08T04:07:20;25.80;;;19.87;;
2756;SDS011;1386;50.862;6.494;2024-03-08T04:09:47;25.23;;;17.97;;
2756;SDS011;1386;50.862;6.494;2024-03-08T04:12:14;28.97;;;19.47;;
2756;SDS011;1386;50.862;6.494;2024-03-08T04:14:42;28.60;;;19.80;;
2756;SDS011;1386;50.862;6.494;2024-03-08T04:17:09;29.30;;;21.10;;
2756;SDS011;1386;50.862;6.494;2024-03-08T04:19:37;27.87;;;19.10;;
2756;SDS011;1386;50.862;6.494;2024-03-08T04:22:06;26.67;;;19.38;;
2756;SDS011;1386;50.862;6.494;2024-03-08T04:24:33;24.53;;;18.87;;
2756;SDS011;1386;50.862;6.494;2024-03-08T04:27:00;31.57;;;19.33;;
2756;SDS011;1386;50.862;6.494;2024-03-08T04:29:27;27.97;;;19.60;;
2756;SDS011;1386;50.862;6.494;2024-03-08T04:31:54;27.15;;;19.92;;
2756;SDS011;1386;50.862;6.494;2024-03-08T04:34:21;29.10;;;19.17;;
2756;SDS011;1386;50.862;6.494;2024-03-08T04:36:49;25.87;;;19.00;;
2756;SDS011;1386;50.862;6.494;2024-03-08T04:39:17;25.47;;;18.40;;
2756;SDS011;1386;50.862;6.494;2024-03-08T04:41:44;25.60;;;17.80;;
2756;SDS011;1386;50.862;6.494;2024-03-08T04:44:11;29.70;;;18.20;;
2756;SDS011;1386;50.862;6.494;2024-03-08T04:46:38;23.20;;;17.50;;
2756;SDS011;1386;50.862;6.494;2024-03-08T04:49:06;26.90;;;18.53;;
2756;SDS011;1386;50.862;6.494;2024-03-08T04:51:33;27.20;;;18.87;;
2756;SDS011;1386;50.862;6.494;2024-03-08T04:54:00;26.53;;;19.67;;
2756;SDS011;1386;50.862;6.494;2024-03-08T04:56:28;26.20;;;19.17;;
2756;SDS011;1386;50.862;6.494;2024-03-08T04:58:55;24.20;;;18.10;;
2756;SDS011;1386;50.862;6.494;2024-03-08T05:01:22;23.50;;;17.90;;
2756;SDS011;1386;50.862;6.494;2024-03-08T05:03:49;26.20;;;18.90;;
2756;SDS011;1386;50.862;6.494;2024-03-08T05:06:19;25.10;;;18.73;;
2756;SDS011;1386;50.862;6.494;2024-03-08T05:08:46;26.10;;;19.50;;
2756;SDS011;1386;50.862;6.494;2024-03-08T05:11:13;25.73;;;18.80;;
2756;SDS011;1386;50.862;6.494;2024-03-08T05:13:41;24.93;;;17.63;;
2756;SDS011;1386;50.862;6.494;2024-03-08T05:16:10;31.87;;;20.10;;
2756;SDS011;1386;50.862;6.494;2024-03-08T05:18:37;29.00;;;20.23;;
2756;SDS011;1386;50.862;6.494;2024-03-08T05:21:04;34.80;;;19.90;;
2756;SDS011;1386;50.862;6.494;2024-03-08T05:23:30;25.03;;;19.07;;
2756;SDS011;1386;50.862;6.494;2024-03-08T05:25:57;25.37;;;17.80;;
2756;SDS011;1386;50.862;6.494;2024-03-08T05:28:24;28.77;;;19.20;;
2756;SDS011;1386;50.862;6.494;2024-03-08T05:30:52;26.00;;;19.87;;
2756;SDS011;1386;50.862;6.494;2024-03-08T05:33:21;26.17;;;20.37;;
2756;SDS011;1386;50.862;6.494;2024-03-08T05:35:48;26.40;;;19.00;;
2756;SDS011;1386;50.862;6.494;2024-03-08T05:38:17;26.67;;;18.50;;
2756;SDS011;1386;50.862;6.494;2024-03-08T05:40:45;26.47;;;19.83;;
2756;SDS011;1386;50.862;6.494;2024-03-08T05:43:12;28.37;;;20.30;;
2756;SDS011;1386;50.862;6.494;2024-03-08T05:45:42;26.87;;;19.10;;
2756;SDS011;1386;50.862;6.494;2024-03-08T05:48:10;31.70;;;20.77;;
2756;SDS011;1386;50.862;6.494;2024-03-08T05:50:38;24.40;;;17.53;;
2756;SDS011;1386;50.862;6.494;2024-03-08T05:53:04;31.07;;;21.57;;
2756;SDS011;1386;50.862;6.494;2024-03-08T05:55:34;30.17;;;19.60;;
2756;SDS011;1386;50.862;6.494;2024-03-08T05:58:01;30.87;;;20.40;;
2756;SDS011;1386;50.862;6.494;2024-03-08T06:00:28;31.90;;;20.90;;
2756;SDS011;1386;50.862;6.494;2024-03-08T06:02:56;32.00;;;21.70;;
2756;SDS011;1386;50.862;6.494;2024-03-08T06:05:25;27.13;;;20.17;;
2756;SDS011;1386;50.862;6.494;2024-03-08T06:07:52;25.73;;;20.00;;
2756;SDS011;1386;50.862;6.494;2024-03-08T06:10:19;29.33;;;20.90;;
2756;SDS011;1386;50.862;6.494;2024-03-08T06:12:46;29.37;;;21.47;;
2756;SDS011;1386;50.862;6.494;2024-03-08T06:15:13;28.23;;;20.38;;
2756;SDS011;1386;50.862;6.494;2024-03-08T06:17:41;28.27;;;20.60;;
2756;SDS011;1386;50.862;6.494;2024-03-08T06:20:08;30.73;;;21.53;;
2756;SDS011;1386;50.862;6.494;2024-03-08T06:22:39;32.67;;;19.30;;
2756;SDS011;1386;50.862;6.494;2024-03-08T06:25:07;28.67;;;19.95;;
2756;SDS011;1386;50.862;6.494;2024-03-08T06:27:35;26.33;;;19.92;;
2756;SDS011;1386;50.862;6.494;2024-03-08T06:30:01;26.60;;;19.57;;
2756;SDS011;1386;50.862;6.494;2024-03-08T06:32:29;29.35;;;21.38;;
2756;SDS011;1386;50.862;6.494;2024-03-08T06:34:58;31.77;;;21.17;;
2756;SDS011;1386;50.862;6.494;2024-03-08T06:37:25;25.63;;;19.50;;
2756;SDS011;1386;50.862;6.494;2024-03-08T06:39:53;33.47;;;21.33;;
2756;SDS011;1386;50.862;6.494;2024-03-08T06:42:20;35.10;;;22.88;;
2756;SDS011;1386;50.862;6.494;2024-03-08T06:44:47;31.30;;;21.00;;
2756;SDS011;1386;50.862;6.494;2024-03-08T06:47:14;27.90;;;20.65;;
2756;SDS011;1386;50.862;6.494;2024-03-08T06:49:41;27.08;;;18.42;;
2756;SDS011;1386;50.862;6.494;2024-03-08T06:52:09;31.25;;;20.30;;
2756;SDS011;1386;50.862;6.494;2024-03-08T06:54:36;31.40;;;21.10;;
2756;SDS011;1386;50.862;6.494;2024-03-08T06:57:05;29.45;;;20.25;;
2756;SDS011;1386;50.862;6.494;2024-03-08T06:59:32;32.22;;;19.95;;
2756;SDS011;1386;50.862;6.494;2024-03-08T07:02:00;29.80;;;21.10;;
2756;SDS011;1386;50.862;6.494;2024-03-08T07:04:27;29.17;;;20.58;;
2756;SDS011;1386;50.862;6.494;2024-03-08T07:06:55;27.23;;;21.27;;
2756;SDS011;1386;50.862;6.494;2024-03-08T07:09:22;30.48;;;20.90;;
2756;SDS011;1386;50.862;6.494;2024-03-08T07:11:49;29.73;;;20.43;;
2756;SDS011;1386;50.862;6.494;2024-03-08T07:14:22;30.63;;;21.07;;
2756;SDS011;1386;50.862;6.494;2024-03-08T07:16:53;27.53;;;19.07;;
2756;SDS011;1386;50.862;6.494;2024-03-08T07:19:19;30.70;;;19.97;;
2756;SDS011;1386;50.862;6.494;2024-03-08T07:21:49;34.90;;;21.95;;
2756;SDS011;1386;50.862;6.494;2024-03-08T07:24:22;27.63;;;21.23;;
2756;SDS011;1386;50.862;6.494;2024-03-08T07:27:04;28.93;;;19.93;;
2756;SDS011;1386;50.862;6.494;2024-03-08T07:29:32;37.03;;;20.93;;
2756;SDS011;1386;50.862;6.494;2024-03-08T07:32:00;32.23;;;19.93;;
2756;SDS011;1386;50.862;6.494;2024-03-08T07:34:37;28.30;;;19.60;;
2756;SDS011;1386;50.862;6.494;2024-03-08T07:37:05;29.17;;;19.93;;
2756;SDS011;1386;50.862;6.494;2024-03-08T07:39:36;31.50;;;19.50;;
2756;SDS011;1386;50.862;6.494;2024-03-08T07:42:04;27.03;;;18.43;;
2756;SDS011;1386;50.862;6.494;2024-03-08T07:44:33;30.23;;;21.30;;
2756;SDS011;1386;50.862;6.494;2024-03-08T07:47:00;30.23;;;20.70;;
2756;SDS011;1386;50.862;6.494;2024-03-08T07:49:27;31.30;;;21.33;;
2756;SDS011;1386;50.862;6.494;2024-03-08T07:51:55;27.97;;;19.07;;
2756;SDS011;1386;50.862;6.494;2024-03-08T07:54:22;28.60;;;19.47;;
2756;SDS011;1386;50.862;6.494;2024-03-08T07:56:57;28.67;;;20.00;;
2756;SDS011;1386;50.862;6.494;2024-03-08T07:59:27;27.17;;;19.50;;
2756;SDS011;1386;50.862;6.494;2024-03-08T08:01:57;28.93;;;19.90;;
2756;SDS011;1386;50.862;6.494;2024-03-08T08:04:26;30.63;;;19.87;;
2756;SDS011;1386;50.862;6.494;2024-03-08T08:06:55;26.23;;;20.50;;
2756;SDS011;1386;50.862;6.494;2024-03-08T08:09:27;27.90;;;19.47;;
2756;SDS011;1386;50.862;6.494;2024-03-08T08:11:59;31.57;;;21.63;;
2756;SDS011;1386;50.862;6.494;2024-03-08T08:14:29;30.40;;;19.70;;
2756;SDS011;1386;50.862;6.494;2024-03-08T08:16:59;24.27;;;18.60;;
2756;SDS011;1386;50.862;6.494;2024-03-08T08:19:29;24.03;;;17.97;;
2756;SDS011;1386;50.862;6.494;2024-03-08T08:22:03;26.50;;;18.70;;
2756;SDS011;1386;50.862;6.494;2024-03-08T08:24:41;26.80;;;18.00;;
2756;SDS011;1386;50.862;6.494;2024-03-08T08:27:09;24.93;;;18.80;;
2756;SDS011;1386;50.862;6.494;2024-03-08T08:29:45;26.80;;;18.50;;
2756;SDS011;1386;50.862;6.494;2024-03-08T08:35:35;27.10;;;19.30;;
2756;SDS011;1386;50.862;6.494;2024-03-08T08:38:02;24.90;;;17.93;;
2756;SDS011;1386;50.862;6.494;2024-03-08T08:40:29;26.30;;;19.30;;
2756;SDS011;1386;50.862;6.494;2024-03-08T08:42:57;28.63;;;20.13;;
2756;SDS011;1386;50.862;6.494;2024-03-08T08:45:24;25.63;;;18.63;;
2756;SDS011;1386;50.862;6.494;2024-03-08T08:47:52;25.60;;;17.77;;
2756;SDS011;1386;50.862;6.494;2024-03-08T08:50:19;25.53;;;18.97;;
2756;SDS011;1386;50.862;6.494;2024-03-08T08:52:50;32.93;;;19.90;;
2756;SDS011;1386;50.862;6.494;2024-03-08T08:55:17;27.50;;;19.23;;
2756;SDS011;1386;50.862;6.494;2024-03-08T08:57:46;31.93;;;19.00;;
2756;SDS011;1386;50.862;6.494;2024-03-08T09:00:14;25.47;;;17.00;;
2756;SDS011;1386;50.862;6.494;2024-03-08T09:02:41;24.30;;;16.60;;
2756;SDS011;1386;50.862;6.494;2024-03-08T09:05:08;26.93;;;18.53;;
2756;SDS011;1386;50.862;6.494;2024-03-08T09:07:36;28.17;;;20.10;;
2756;SDS011;1386;50.862;6.494;2024-03-08T09:10:05;26.80;;;17.83;;
2756;SDS011;1386;50.862;6.494;2024-03-08T09:12:34;26.73;;;18.77;;
2756;SDS011;1386;50.862;6.494;2024-03-08T09:15:01;23.60;;;17.17;;
2756;SDS011;1386;50.862;6.494;2024-03-08T09:17:29;25.07;;;18.43;;
2756;SDS011;1386;50.862;6.494;2024-03-08T09:19:58;30.63;;;18.03;;
2756;SDS011;1386;50.862;6.494;2024-03-08T09:22:25;26.40;;;18.10;;
2756;SDS011;1386;50.862;6.494;2024-03-08T09:24:52;25.07;;;16.10;;
2756;SDS011;1386;50.862;6.494;2024-03-08T09:27:20;30.50;;;18.43;;
2756;SDS011;1386;50.862;6.494;2024-03-08T09:29:47;32.63;;;18.20;;
2756;SDS011;1386;50.862;6.494;2024-03-08T09:32:14;29.37;;;19.27;;
2756;SDS011;1386;50.862;6.494;2024-03-08T09:34:41;29.70;;;19.03;;
2756;SDS011;1386;50.862;6.494;2024-03-08T09:37:09;29.37;;;16.47;;
2756;SDS011;1386;50.862;6.494;2024-03-08T09:39:39;30.37;;;16.77;;
2756;SDS011;1386;50.862;6.494;2024-03-08T09:42:06;25.70;;;17.43;;
2756;SDS011;1386;50.862;6.494;2024-03-08T09:44:34;28.23;;;18.80;;
2756;SDS011;1386;50.862;6.494;2024-03-08T09:47:03;25.23;;;17.90;;
2756;SDS011;1386;50.862;6.494;2024-03-08T09:49:31;32.60;;;18.63;;
2756;SDS011;1386;50.862;6.494;2024-03-08T09:51:58;24.53;;;17.10;;
2756;SDS011;1386;50.862;6.494;2024-03-08T09:54:25;21.50;;;15.57;;
2756;SDS011;1386;50.862;6.494;2024-03-08T09:56:53;20.77;;;15.93;;
2756;SDS011;1386;50.862;6.494;2024-03-08T09:59:20;46.23;;;18.70;;
2756;SDS011;1386;50.862;6.494;2024-03-08T10:02:12;31.03;;;15.83;;
2756;SDS011;1386;50.862;6.494;2024-03-08T10:04:41;19.33;;;15.17;;
2756;SDS011;1386;50.862;6.494;2024-03-08T10:07:11;24.53;;;16.70;;
2756;SDS011;1386;50.862;6.494;2024-03-08T10:09:38;29.80;;;14.57;;
2756;SDS011;1386;50.862;6.494;2024-03-08T10:12:06;31.70;;;15.67;;
2756;SDS011;1386;50.862;6.494;2024-03-08T10:14:38;24.23;;;14.50;;
2756;SDS011;1386;50.862;6.494;2024-03-08T10:17:06;20.17;;;13.50;;
2756;SDS011;1386;50.862;6.494;2024-03-08T10:19:35;20.80;;;14.73;;
2756;SDS011;1386;50.862;6.494;2024-03-08T10:22:02;22.80;;;12.37;;
2756;SDS011;1386;50.862;6.494;2024-03-08T10:24:29;20.30;;;13.00;;
2756;SDS011;1386;50.862;6.494;2024-03-08T10:26:58;23.87;;;15.10;;
2756;SDS011;1386;50.862;6.494;2024-03-08T10:29:26;26.03;;;15.60;;
2756;SDS011;1386;50.862;6.494;2024-03-08T10:31:54;40.50;;;14.70;;
2756;SDS011;1386;50.862;6.494;2024-03-08T10:34:22;30.57;;;14.67;;
2756;SDS011;1386;50.862;6.494;2024-03-08T10:36:51;17.13;;;12.87;;
2756;SDS011;1386;50.862;6.494;2024-03-08T10:39:21;27.13;;;14.90;;
2756;SDS011;1386;50.862;6.494;2024-03-08T10:41:51;18.30;;;12.80;;
2756;SDS011;1386;50.862;6.494;2024-03-08T10:44:26;16.40;;;13.50;;
2756;SDS011;1386;50.862;6.494;2024-03-08T10:47:09;22.93;;;13.57;;
2756;SDS011;1386;50.862;6.494;2024-03-08T10:49:43;22.03;;;12.80;;
2756;SDS011;1386;50.862;6.494;2024-03-08T10:52:21;18.37;;;13.23;;
2756;SDS011;1386;50.862;6.494;2024-03-08T10:54:48;17.30;;;13.17;;
2756;SDS011;1386;50.862;6.494;2024-03-08T10:57:17;18.47;;;13.33;;
2756;SDS011;1386;50.862;6.494;2024-03-08T10:59:45;18.63;;;13.40;;
2756;SDS011;1386;50.862;6.494;2024-03-08T11:02:14;25.60;;;13.00;;
2756;SDS011;1386;50.862;6.494;2024-03-08T11:04:47;20.40;;;13.40;;
2756;SDS011;1386;50.862;6.494;2024-03-08T11:07:15;23.87;;;14.00;;
2756;SDS011;1386;50.862;6.494;2024-03-08T11:09:46;17.07;;;12.97;;
2756;SDS011;1386;50.862;6.494;2024-03-08T11:12:23;22.03;;;13.97;;
2756;SDS011;1386;50.862;6.494;2024-03-08T11:14:54;33.87;;;15.40;;
2756;SDS011;1386;50.862;6.494;2024-03-08T11:17:26;20.40;;;13.80;;
2756;SDS011;1386;50.862;6.494;2024-03-08T11:20:08;17.63;;;13.03;;
2756;SDS011;1386;50.862;6.494;2024-03-08T11:22:40;19.10;;;13.77;;
2756;SDS011;1386;50.862;6.494;2024-03-08T11:25:30;18.17;;;12.77;;
2756;SDS011;1386;50.862;6.494;2024-03-08T11:28:08;17.60;;;12.03;;
2756;SDS011;1386;50.862;6.494;2024-03-08T11:30:41;18.20;;;12.37;;
2756;SDS011;1386;50.862;6.494;2024-03-08T11:33:10;16.30;;;12.60;;
2756;SDS011;1386;50.862;6.494;2024-03-08T11:35:38;18.90;;;13.00;;
2756;SDS011;1386;50.862;6.494;2024-03-08T11:38:07;15.40;;;12.13;;
2756;SDS011;1386;50.862;6.494;2024-03-08T11:40:36;15.00;;;11.77;;
2756;SDS011;1386;50.862;6.494;2024-03-08T11:43:05;20.10;;;11.80;;
2756;SDS011;1386;50.862;6.494;2024-03-08T11:45:32;14.30;;;12.00;;
2756;SDS011;1386;50.862;6.494;2024-03-08T11:48:01;18.77;;;12.40;;
2756;SDS011;1386;50.862;6.494;2024-03-08T11:50:29;16.50;;;11.70;;
2756;SDS011;1386;50.862;6.494;2024-03-08T11:53:00;16.23;;;12.60;;
2756;SDS011;1386;50.862;6.494;2024-03-08T11:55:28;14.77;;;11.30;;
2756;SDS011;1386;50.862;6.494;2024-03-08T11:58:01;20.70;;;13.63;;
2756;SDS011;1386;50.862;6.494;2024-03-08T12:00:29;16.50;;;11.13;;
2756;SDS011;1386;50.862;6.494;2024-03-08T12:03:06;16.57;;;11.93;;
2756;SDS011;1386;50.862;6.494;2024-03-08T12:05:35;16.87;;;11.60;;
2756;SDS011;1386;50.862;6.494;2024-03-08T12:08:03;17.27;;;12.73;;
2756;SDS011;1386;50.862;6.494;2024-03-08T12:10:32;24.03;;;12.53;;
2756;SDS011;1386;50.862;6.494;2024-03-08T12:24:04;15.00;;;11.70;;
2756;SDS011;1386;50.862;6.494;2024-03-08T12:26:48;15.87;;;12.50;;
2756;SDS011;1386;50.862;6.494;2024-03-08T12:29:20;18.10;;;11.30;;
2756;SDS011;1386;50.862;6.494;2024-03-08T12:31:55;16.90;;;11.00;;
2756;SDS011;1386;50.862;6.494;2024-03-08T12:34:26;16.33;;;11.00;;
2756;SDS011;1386;50.862;6.494;2024-03-08T12:36:53;15.60;;;12.33;;
2756;SDS011;1386;50.862;6.494;2024-03-08T12:39:32;23.33;;;10.80;;
2756;SDS011;1386;50.862;6.494;2024-03-08T12:42:04;19.03;;;11.13;;
2756;SDS011;1386;50.862;6.494;2024-03-08T12:47:24;15.63;;;11.00;;
2756;SDS011;1386;50.862;6.494;2024-03-08T12:50:29;15.00;;;11.10;;
2756;SDS011;1386;50.862;6.494;2024-03-08T12:52:59;14.50;;;10.83;;
2756;SDS011;1386;50.862;6.494;2024-03-08T12:55:30;15.13;;;11.60;;
2756;SDS011;1386;50.862;6.494;2024-03-08T12:57:57;17.70;;;11.90;;
2756;SDS011;1386;50.862;6.494;2024-03-08T13:00:25;16.90;;;11.73;;
2756;SDS011;1386;50.862;6.494;2024-03-08T13:02:53;15.30;;;11.67;;
2756;SDS011;1386;50.862;6.494;2024-03-08T13:05:20;15.73;;;10.27;;
2756;SDS011;1386;50.862;6.494;2024-03-08T13:07:48;15.50;;;11.33;;
2756;SDS011;1386;50.862;6.494;2024-03-08T13:10:20;13.70;;;11.07;;
2756;SDS011;1386;50.862;6.494;2024-03-08T13:12:49;16.80;;;12.60;;
2756;SDS011;1386;50.862;6.494;2024-03-08T13:15:18;14.20;;;11.30;;
2756;SDS011;1386;50.862;6.494;2024-03-08T13:17:46;16.20;;;11.23;;
2756;SDS011;1386;50.862;6.494;2024-03-08T13:20:13;16.17;;;11.53;;
2756;SDS011;1386;50.862;6.494;2024-03-08T13:22:45;13.80;;;10.90;;
2756;SDS011;1386;50.862;6.494;2024-03-08T13:25:13;17.40;;;11.40;;
2756;SDS011;1386;50.862;6.494;2024-03-08T13:27:40;15.20;;;10.37;;
2756;SDS011;1386;50.862;6.494;2024-03-08T13:30:09;16.90;;;11.30;;
2756;SDS011;1386;50.862;6.494;2024-03-08T13:32:38;15.80;;;11.93;;
2756;SDS011;1386;50.862;6.494;2024-03-08T13:35:08;15.53;;;10.63;;
2756;SDS011;1386;50.862;6.494;2024-03-08T13:37:37;18.03;;;11.90;;
2756;SDS011;1386;50.862;6.494;2024-03-08T13:40:05;15.37;;;11.70;;
2756;SDS011;1386;50.862;6.494;2024-03-08T13:42:36;18.03;;;11.80;;
2756;SDS011;1386;50.862;6.494;2024-03-08T13:45:04;15.83;;;10.80;;
2756;SDS011;1386;50.862;6.494;2024-03-08T13:47:35;11.40;;;9.80;;
2756;SDS011;1386;50.862;6.494;2024-03-08T13:50:02;14.13;;;9.50;;
2756;SDS011;1386;50.862;6.494;2024-03-08T13:52:32;11.13;;;9.93;;
2756;SDS011;1386;50.862;6.494;2024-03-08T13:54:59;12.23;;;9.73;;
2756;SDS011;1386;50.862;6.494;2024-03-08T13:57:26;14.03;;;10.10;;
2756;SDS011;1386;50.862;6.494;2024-03-08T13:59:53;16.43;;;10.17;;
2756;SDS011;1386;50.862;6.494;2024-03-08T14:02:20;14.07;;;10.17;;
2756;SDS011;1386;50.862;6.494;2024-03-08T14:04:49;13.80;;;10.10;;
2756;SDS011;1386;50.862;6.494;2024-03-08T14:07:16;14.03;;;10.13;;
2756;SDS011;1386;50.862;6.494;2024-03-08T14:09:43;13.20;;;9.53;;
2756;SDS011;1386;50.862;6.494;2024-03-08T14:12:09;14.23;;;10.50;;
2756;SDS011;1386;50.862;6.494;2024-03-08T14:14:36;13.10;;;10.37;;
2756;SDS011;1386;50.862;6.494;2024-03-08T14:17:04;14.30;;;10.40;;
2756;SDS011;1386;50.862;6.494;2024-03-08T14:19:32;13.77;;;9.93;;
2756;SDS011;1386;50.862;6.494;2024-03-08T14:22:01;13.87;;;9.60;;
2756;SDS011;1386;50.862;6.494;2024-03-08T14:24:29;13.10;;;10.20;;
2756;SDS011;1386;50.862;6.494;2024-03-08T14:26:56;13.40;;;10.30;;
2756;SDS011;1386;50.862;6.494;2024-03-08T14:29:23;15.53;;;11.00;;
2756;SDS011;1386;50.862;6.494;2024-03-08T14:31:54;11.20;;;9.17;;
2756;SDS011;1386;50.862;6.494;2024-03-08T14:34:22;12.20;;;9.50;;
2756;SDS011;1386;50.862;6.494;2024-03-08T14:36:55;14.00;;;10.97;;
2756;SDS011;1386;50.862;6.494;2024-03-08T14:39:24;12.03;;;10.13;;
2756;SDS011;1386;50.862;6.494;2024-03-08T14:44:44;20.90;;;11.10;;
2756;SDS011;1386;50.862;6.494;2024-03-08T14:47:18;12.50;;;9.60;;
2756;SDS011;1386;50.862;6.494;2024-03-08T14:49:47;15.57;;;10.63;;
2756;SDS011;1386;50.862;6.494;2024-03-08T14:52:17;18.80;;;11.10;;
2756;SDS011;1386;50.862;6.494;2024-03-08T14:54:55;14.63;;;10.30;;
2756;SDS011;1386;50.862;6.494;2024-03-08T14:57:23;12.10;;;10.80;;
2756;SDS011;1386;50.862;6.494;2024-03-08T14:59:51;13.17;;;9.90;;
2756;SDS011;1386;50.862;6.494;2024-03-08T15:02:18;13.70;;;10.70;;
2756;SDS011;1386;50.862;6.494;2024-03-08T15:04:46;14.90;;;11.43;;
2756;SDS011;1386;50.862;6.494;2024-03-08T15:07:21;13.00;;;10.80;;
2756;SDS011;1386;50.862;6.494;2024-03-08T15:09:49;14.33;;;10.30;;
2756;SDS011;1386;50.862;6.494;2024-03-08T15:12:17;15.23;;;11.40;;
2756;SDS011;1386;50.862;6.494;2024-03-08T15:14:44;15.60;;;10.50;;
2756;SDS011;1386;50.862;6.494;2024-03-08T15:17:11;14.10;;;11.10;;